Список аэропортов
Фактическая погода:

25 июня, 11:20
Температура: +27°C (+27.0*)
Ветер: северный 2 м/с
Давление: *759 мм
Без существ. явл.
Время (МСК)Темп. СВетерВлажностьДавлениеОблачностьОсадки
09:00+26З, 2 м/с51%1012 гПаясно
10:00+28СЗ, 3 м/с45%1012 гПаясно
11:00+30СЗ, 5 м/с42%1012 гПаясно
12:00+30СЗ, 6 м/с41%1012 гПаясно
13:00+30СЗ, 6 м/с41%1012 гПаясно
14:00+30СЗ, 6 м/с43%1012 гПаясно
15:00+29СЗ, 6 м/с47%1012 гПаясно
16:00+29СЗ, 6 м/с49%1012 гПаясно
17:00+29СЗ, 5 м/с51%1011 гПаясно
18:00+28СЗ, 4 м/с55%1011 гПаясно
19:00+27СЗ, 3 м/с60%1011 гПаясно
20:00+27СЗ, 2 м/с63%1011 гПаясно
21:00+25СЗ, 1 м/с71%1011 гПаясно
22:00+24Штиль 74%1012 гПаясно
23:00+24Штиль 75%1012 гПаясно
26 июня
00:00+23Штиль 75%1012 гПаясно
01:00+23Ю, 1 м/с73%1012 гПаясно
02:00+23Ю, 2 м/с69%1011 гПаясно
03:00+23Ю, 2 м/с67%1011 гПаясно
04:00+22Ю, 1 м/с68%1011 гПаясно
05:00+22ЮЗ, 1 м/с69%1011 гПаясно
06:00+22Ю, 1 м/с69%1011 гПаясно
07:00+23Ю, 2 м/с65%1011 гПаясно
08:00+25Ю, 2 м/с61%1011 гПаясно
09:00+26Штиль 56%1011 гПаясно
10:00+28СЗ, 2 м/с52%1011 гПаясно
11:00+29СЗ, 3 м/с49%1011 гПаясно
12:00+30СЗ, 4 м/с47%1011 гПаясно
13:00+30СЗ, 5 м/с48%1011 гПаясно
14:00+30СЗ, 5 м/с51%1011 гПаясно
15:00+30СЗ, 4 м/с51%1011 гПаясно
16:00+30СЗ, 5 м/с51%1011 гПаясно
17:00+29СЗ, 5 м/с54%1011 гПаясно
18:00+28СЗ, 4 м/с54%1011 гПаясно
19:00+28СЗ, 2 м/с56%1011 гПаясно
20:00+27С, 1 м/с59%1011 гПаясно
21:00+25Штиль 67%1011 гПаясно
22:00+25Ю, 1 м/с68%1012 гПаясно
23:00+24Ю, 1 м/с66%1012 гПаясно
27 июня
00:00+24Ю, 1 м/с64%1012 гПаясно
01:00+24Ю, 1 м/с64%1012 гПаясно
02:00+23ЮЗ, 1 м/с64%1011 гПаясно
03:00+23Ю, 2 м/с64%1011 гПаясно
04:00+23Ю, 2 м/с62%1011 гПаясно
05:00+23Ю, 3 м/с63%1011 гПаясно
06:00+23Ю, 3 м/с65%1011 гПаясно
07:00+23Ю, 2 м/с65%1011 гПаясно
08:00+24Ю, 1 м/с62%1012 гПаясно
09:00+26С, 1 м/с57%1012 гПаясно